ブラザヴィル の空港の天気 - METARとTAF

ブラザビル/マヤマヤ空港 ( FCBB / BZV ) - コンゴ共和国 ブラザヴィル
飛行場実況気象(Metar)
観測時間02/05 22:00 WAT (02/05 21:00 UTC)
風向・風速西 3m/s
視程10km以上
天気現象
少しの雲 雲底高度 910m
気温25℃
湿度78%
気圧1013hPa
METARFCBB 052100Z 28006KT 240V310 9999 TS FEW030CB 25/21 Q1013 NOSIG
過去の天気等 Google飛行場航空写真 Wunderground天気予報

過去48時間のMETAR

飛行場予報(TAF)
発表時間: 2/05 18:00 WAT (2/05 17:00 UTC)
予報対象時間: 5日19時 WAT ~ 7日1時 WAT
風向・風速南西 3m/s
視程9000m
天気現象
少しの雲 雲底高度 550m
少しの積乱雲 雲底高度 910m
5日21時 WAT ~ 5日23時 WAT に徐々に
天気現象運行に影響にある天気現象が終了
全天の4割程度の雲 雲底高度 490m
6日14時 WAT ~ 6日16時 WAT に徐々に
少しの雲 雲底高度 610m
少しの積乱雲 雲底高度 910m
6日18時 WAT から 確率 30% で
天気現象
TAF FCBB 051700Z 0518/0624 22006KT 9000 TS FEW018 FEW030CB
BECMG 0520/0522 NSW SCT016
BECMG 0613/0615 FEW020 FEW030CB
PROB30 0617/0621 TS